Donna Nook, United Kingdom
Current Conditions -  °F | °C
As of 7:50 PM on Friday 21 Nov 2014 (Local Time) from EGXS Reporting Station
Broken Clouds Broken Clouds  
Wind Chill: 41°   Ceiling: 5000
Heat Index: 48°   Visibility: 3mi
Dew Point: 46°   Wind: 23mph
Humidity: 93%   Direction: 120°ESE
Pressure: 29.97"   Gusts: NA
Location:  53.47°N, 0.15°E
Report Text: EGXS 211950Z AUTO 12020KT 5000 // BKN050/// 09/08 Q1015
Loading
Personal Weather Stations






























Interactive Weather Map New forecast layout! Learn more

10-Day Weather Forecast

Advertisements
Track Severe Weather on mobile